Ellicott, Colorado
Current Conditions -  °F | °C
As of 2:56 AM on Sunday 23 Nov 2014 (Local Time) from KSHM Reporting Station
Light Rain Light Rain  
Wind Chill: 34°   Ceiling: 6000
Heat Index: 42°   Visibility: 10mi
Dew Point: 25°   Wind: 16mph
Humidity: 50%   Direction: 10°N
Pressure: 29.62"   Gusts: 22mph
Location:  39.0026°N, 104.316°W
Report Text: KSHM 230956Z AUTO 01014G19KT 10SM -RA OVC060 06/M04 A2962 RMK AO2 SLP995 T00561040
Loading
Personal Weather Stations






























Interactive Weather Map New forecast layout! Learn more

10-Day Weather Forecast

Advertisements
Track Severe Weather on mobile